PWSweather.com
Personal Weather Stations
Station Observations
KMILAPEE3
Lapeer Michigan, Lapeer, MI 48446

Lapeer MichiganLapeer, MI 48446

Lat: 43.057, Lon: -83.362

Elevation: 897

Station Type: Oregon Scientific WMR-968

Latest ConditionsUpdated 8:44:49 PM EST Saturday, Dec 20, 2014
Currently Today's Max Today's Min Today's Average
Temperature 27.5°F-2.5°C 30.2°F-1.0°C 13.5°F-10.3°C 22.3°F-5.4°C
Dew Point 19.2°F-7.1°C 26.4°F-3.1°C 7.8°F-13.4°C 15.7°F-9.1°C
Winds Calm Calm 4.3 mph WSW6.9 kmh WSW - 0.2 mph 0.3 kmh
Wind Gusts -- 6.7 mph10.8 kmh - -
Humidity 70% 86% 67% 76%
Pressure 18.72 in633.9 mb 18.72 in633.9 mb 18.72 in633.9 mb -
Hour Temp Dew Point Humidity Winds Wind Gusts Pressure Precip Precip Rate Daily Precip Total
08:44 PM 27.5°F-2.5°C 19.2°F-7.1°C 70% Calm Calm -- 18.72 in633.9 mb 0.00 in0.0 mm 0.00 in/hr0.0 mm/hr 0.00 in0.0 mm
08:39 PM 27.5°F-2.5°C 19.2°F-7.1°C 70% Calm Calm -- 18.72 in633.9 mb 0.00 in0.0 mm 0.00 in/hr0.0 mm/hr 0.00 in0.0 mm
08:33 PM 27.5°F-2.5°C 19.2°F-7.1°C 70% Calm Calm -- 18.72 in633.9 mb 0.00 in0.0 mm 0.00 in/hr0.0 mm/hr 0.00 in0.0 mm
08:28 PM 27.7°F-2.4°C 19.4°F-7.0°C 70% Calm Calm -- 18.72 in633.9 mb 0.00 in0.0 mm 0.00 in/hr0.0 mm/hr 0.00 in0.0 mm
08:22 PM 27.7°F-2.4°C 19.3°F-7.1°C 70% Calm Calm -- 18.72 in633.9 mb 0.00 in0.0 mm 0.00 in/hr0.0 mm/hr 0.00 in0.0 mm
08:17 PM 27.7°F-2.4°C 19.3°F-7.1°C 70% Calm Calm -- 18.72 in633.9 mb 0.00 in0.0 mm 0.00 in/hr0.0 mm/hr 0.00 in0.0 mm
08:12 PM 27.9°F-2.3°C 19.5°F-6.9°C 70% Calm Calm -- 18.72 in633.9 mb 0.00 in0.0 mm 0.00 in/hr0.0 mm/hr 0.00 in0.0 mm
08:07 PM 27.9°F-2.3°C 19.5°F-6.9°C 70% Calm Calm -- 18.72 in633.9 mb 0.00 in0.0 mm 0.00 in/hr0.0 mm/hr 0.00 in0.0 mm
08:02 PM 27.7°F-2.4°C 19.3°F-7.1°C 70% Calm Calm -- 18.72 in633.9 mb 0.00 in0.0 mm 0.00 in/hr0.0 mm/hr 0.00 in0.0 mm
07:57 PM 27.7°F-2.4°C 19.3°F-7.1°C 70% Calm Calm -- 18.72 in633.9 mb 0.00 in0.0 mm 0.00 in/hr0.0 mm/hr 0.00 in0.0 mm
07:51 PM 27.7°F-2.4°C 19.3°F-7.1°C 70% Calm Calm -- 18.72 in633.9 mb 0.00 in0.0 mm 0.00 in/hr0.0 mm/hr 0.00 in0.0 mm
07:47 PM 27.7°F-2.4°C 19.3°F-7.1°C 70% Calm Calm -- 18.72 in633.9 mb 0.00 in0.0 mm 0.00 in/hr0.0 mm/hr 0.00 in0.0 mm
07:41 PM 27.7°F-2.4°C 19.3°F-7.1°C 70% Calm Calm -- 18.72 in633.9 mb 0.00 in0.0 mm 0.00 in/hr0.0 mm/hr 0.00 in0.0 mm
07:36 PM 27.7°F-2.4°C 19.3°F-7.1°C 70% Calm Calm -- 18.72 in633.9 mb 0.00 in0.0 mm 0.00 in/hr0.0 mm/hr 0.00 in0.0 mm
07:31 PM 27.7°F-2.4°C 19.3°F-7.1°C 70% Calm Calm -- 18.72 in633.9 mb 0.00 in0.0 mm 0.00 in/hr0.0 mm/hr 0.00 in0.0 mm
07:26 PM 27.7°F-2.4°C 19.3°F-7.1°C 70% Calm Calm -- 18.72 in633.9 mb 0.00 in0.0 mm 0.00 in/hr0.0 mm/hr 0.00 in0.0 mm
07:21 PM 27.7°F-2.4°C 19.3°F-7.1°C 70% Calm Calm -- 18.72 in633.9 mb 0.00 in0.0 mm 0.00 in/hr0.0 mm/hr 0.00 in0.0 mm
07:16 PM 27.7°F-2.4°C 19.3°F-7.1°C 70% Calm Calm -- 18.72 in633.9 mb 0.00 in0.0 mm 0.00 in/hr0.0 mm/hr 0.00 in0.0 mm
07:11 PM 27.7°F-2.4°C 19.2°F-7.1°C 70% Calm Calm -- 18.72 in633.9 mb 0.00 in0.0 mm 0.00 in/hr0.0 mm/hr 0.00 in0.0 mm
07:06 PM 27.9°F-2.3°C 19.4°F-7.0°C 70% Calm Calm -- 18.72 in633.9 mb 0.00 in0.0 mm 0.00 in/hr0.0 mm/hr 0.00 in0.0 mm
07:01 PM 27.9°F-2.3°C 19.4°F-7.0°C 70% Calm Calm -- 18.72 in633.9 mb 0.00 in0.0 mm 0.00 in/hr0.0 mm/hr 0.00 in0.0 mm
06:56 PM 27.9°F-2.3°C 19.4°F-7.0°C 70% Calm Calm -- 18.72 in633.9 mb 0.00 in0.0 mm 0.00 in/hr0.0 mm/hr 0.00 in0.0 mm
06:51 PM 27.9°F-2.3°C 19.4°F-7.0°C 70% Calm Calm -- 18.72 in633.9 mb 0.00 in0.0 mm 0.00 in/hr0.0 mm/hr 0.00 in0.0 mm
06:45 PM 27.9°F-2.3°C 19.4°F-7.0°C 70% Calm Calm -- 18.72 in633.9 mb 0.00 in0.0 mm 0.00 in/hr0.0 mm/hr 0.00 in0.0 mm
06:41 PM 28.0°F-2.2°C 19.5°F-6.9°C 70% Calm Calm -- 18.72 in633.9 mb 0.00 in0.0 mm 0.00 in/hr0.0 mm/hr 0.00 in0.0 mm
06:35 PM 28.0°F-2.2°C 19.5°F-6.9°C 70% Calm Calm -- 18.72 in633.9 mb 0.00 in0.0 mm 0.00 in/hr0.0 mm/hr 0.00 in0.0 mm
06:30 PM 28.0°F-2.2°C 19.1°F-7.2°C 69% Calm Calm -- 18.72 in633.9 mb 0.00 in0.0 mm 0.00 in/hr0.0 mm/hr 0.00 in0.0 mm
06:26 PM 28.0°F-2.2°C 19.1°F-7.2°C 69% Calm Calm -- 18.72 in633.9 mb 0.00 in0.0 mm 0.00 in/hr0.0 mm/hr 0.00 in0.0 mm
06:20 PM 28.2°F-2.1°C 19.2°F-7.1°C 69% Calm Calm -- 18.72 in633.9 mb 0.00 in0.0 mm 0.00 in/hr0.0 mm/hr 0.00 in0.0 mm
06:15 PM 28.2°F-2.1°C 19.2°F-7.1°C 69% Calm Calm -- 18.72 in633.9 mb 0.00 in0.0 mm 0.00 in/hr0.0 mm/hr 0.00 in0.0 mm
06:10 PM 28.4°F-2.0°C 19.4°F-7.0°C 69% Calm Calm -- 18.72 in633.9 mb 0.00 in0.0 mm 0.00 in/hr0.0 mm/hr 0.00 in0.0 mm
06:05 PM 28.4°F-2.0°C 19.4°F-7.0°C 69% Calm Calm -- 18.72 in633.9 mb 0.00 in0.0 mm 0.00 in/hr0.0 mm/hr 0.00 in0.0 mm
06:00 PM 28.6°F-1.9°C 19.6°F-6.9°C 69% Calm Calm -- 18.72 in633.9 mb 0.00 in0.0 mm 0.00 in/hr0.0 mm/hr 0.00 in0.0 mm
05:55 PM 28.6°F-1.9°C 19.6°F-6.9°C 68% Calm Calm -- 18.72 in633.9 mb 0.00 in0.0 mm 0.00 in/hr0.0 mm/hr 0.00 in0.0 mm
05:49 PM 28.6°F-1.9°C 19.6°F-6.9°C 68% Calm Calm -- 18.72 in633.9 mb 0.00 in0.0 mm 0.00 in/hr0.0 mm/hr 0.00 in0.0 mm
05:44 PM 28.4°F-2.0°C 19.4°F-7.0°C 68% Calm Calm -- 18.72 in633.9 mb 0.00 in0.0 mm 0.00 in/hr0.0 mm/hr 0.00 in0.0 mm
05:39 PM 28.4°F-2.0°C 19.4°F-7.0°C 68% Calm Calm -- 18.72 in633.9 mb 0.00 in0.0 mm 0.00 in/hr0.0 mm/hr 0.00 in0.0 mm
05:34 PM 28.6°F-1.9°C 19.1°F-7.2°C 67% Calm Calm -- 18.72 in633.9 mb 0.00 in0.0 mm 0.00 in/hr0.0 mm/hr 0.00 in0.0 mm
05:29 PM 28.6°F-1.9°C 19.1°F-7.2°C 67% Calm Calm -- 18.72 in633.9 mb 0.00 in0.0 mm 0.00 in/hr0.0 mm/hr 0.00 in0.0 mm
05:24 PM 28.6°F-1.9°C 19.1°F-7.2°C 67% Calm Calm -- 18.72 in633.9 mb 0.00 in0.0 mm 0.00 in/hr0.0 mm/hr 0.00 in0.0 mm
05:19 PM 28.6°F-1.9°C 19.1°F-7.2°C 67% Calm Calm -- 18.72 in633.9 mb 0.00 in0.0 mm 0.00 in/hr0.0 mm/hr 0.00 in0.0 mm
05:14 PM 28.6°F-1.9°C 19.1°F-7.2°C 67% Calm Calm -- 18.72 in633.9 mb 0.00 in0.0 mm 0.00 in/hr0.0 mm/hr 0.00 in0.0 mm
05:09 PM 28.6°F-1.9°C 19.1°F-7.2°C 67% Calm Calm -- 18.72 in633.9 mb 0.00 in0.0 mm 0.00 in/hr0.0 mm/hr 0.00 in0.0 mm
05:04 PM 28.8°F-1.8°C 19.3°F-7.1°C 67% Calm Calm -- 18.72 in633.9 mb 0.00 in0.0 mm 0.00 in/hr0.0 mm/hr 0.00 in0.0 mm
04:57 PM 28.8°F-1.8°C 19.3°F-7.1°C 67% Calm Calm -- 18.72 in633.9 mb 0.00 in0.0 mm 0.00 in/hr0.0 mm/hr 0.00 in0.0 mm
04:52 PM 28.9°F-1.7°C 19.4°F-7.0°C 67% Calm Calm -- 18.72 in633.9 mb 0.00 in0.0 mm 0.00 in/hr0.0 mm/hr 0.00 in0.0 mm
04:47 PM 28.9°F-1.7°C 19.4°F-7.0°C 67% Calm Calm -- 18.72 in633.9 mb 0.00 in0.0 mm 0.00 in/hr0.0 mm/hr 0.00 in0.0 mm
04:42 PM 28.9°F-1.7°C 19.4°F-7.0°C 67% Calm Calm -- 18.72 in633.9 mb 0.00 in0.0 mm 0.00 in/hr0.0 mm/hr 0.00 in0.0 mm
04:37 PM 28.9°F-1.7°C 19.4°F-7.0°C 67% Calm Calm 4.3 mph6.9 kmh 18.72 in633.9 mb 0.00 in0.0 mm 0.00 in/hr0.0 mm/hr 0.00 in0.0 mm
04:32 PM 28.9°F-1.7°C 19.4°F-7.0°C 67% Calm Calm 4.9 mph7.9 kmh 18.72 in633.9 mb 0.00 in0.0 mm 0.00 in/hr0.0 mm/hr 0.00 in0.0 mm
04:27 PM 28.9°F-1.7°C 19.4°F-7.0°C 67% Calm Calm 6.2 mph10.0 kmh 18.72 in633.9 mb 0.00 in0.0 mm 0.00 in/hr0.0 mm/hr 0.00 in0.0 mm
04:22 PM 29.1°F-1.6°C 19.6°F-6.9°C 67% 3.9 mph W6.3 kmh W 6.2 mph10.0 kmh 18.72 in633.9 mb 0.00 in0.0 mm 0.00 in/hr0.0 mm/hr 0.00 in0.0 mm
04:17 PM 29.1°F-1.6°C 19.6°F-6.9°C 67% Calm Calm -- 18.72 in633.9 mb 0.00 in0.0 mm 0.00 in/hr0.0 mm/hr 0.00 in0.0 mm
04:12 PM 29.1°F-1.6°C 19.6°F-6.9°C 67% Calm Calm -- 18.72 in633.9 mb 0.00 in0.0 mm 0.00 in/hr0.0 mm/hr 0.00 in0.0 mm
04:07 PM 29.1°F-1.6°C 19.7°F-6.8°C 67% Calm Calm -- 18.72 in633.9 mb 0.00 in0.0 mm 0.00 in/hr0.0 mm/hr 0.00 in0.0 mm
04:01 PM 29.3°F-1.5°C 20.3°F-6.5°C 68% Calm Calm 3.0 mph4.8 kmh 18.72 in633.9 mb 0.00 in0.0 mm 0.00 in/hr0.0 mm/hr 0.00 in0.0 mm
03:56 PM 29.3°F-1.5°C 20.3°F-6.5°C 69% Calm Calm 3.0 mph4.8 kmh 18.72 in633.9 mb 0.00 in0.0 mm 0.00 in/hr0.0 mm/hr 0.00 in0.0 mm
03:51 PM 29.3°F-1.5°C 20.3°F-6.5°C 69% Calm Calm -- 18.72 in633.9 mb 0.00 in0.0 mm 0.00 in/hr0.0 mm/hr 0.00 in0.0 mm
03:46 PM 29.3°F-1.5°C 19.9°F-6.7°C 67% Calm Calm -- 18.72 in633.9 mb 0.00 in0.0 mm 0.00 in/hr0.0 mm/hr 0.00 in0.0 mm
03:41 PM 29.3°F-1.5°C 19.9°F-6.7°C 67% Calm Calm 4.9 mph7.9 kmh 18.72 in633.9 mb 0.00 in0.0 mm 0.00 in/hr0.0 mm/hr 0.00 in0.0 mm
03:36 PM 29.5°F-1.4°C 20.5°F-6.4°C 69% Calm Calm 5.5 mph8.9 kmh 18.72 in633.9 mb 0.00 in0.0 mm 0.00 in/hr0.0 mm/hr 0.00 in0.0 mm
03:31 PM 29.5°F-1.4°C 20.5°F-6.4°C 69% 3.4 mph SW5.5 kmh SW 6.7 mph10.8 kmh 18.72 in633.9 mb 0.00 in0.0 mm 0.00 in/hr0.0 mm/hr 0.00 in0.0 mm
03:26 PM 29.5°F-1.4°C 20.5°F-6.4°C 69% 3.9 mph SW6.3 kmh SW 6.7 mph10.8 kmh 18.72 in633.9 mb 0.00 in0.0 mm 0.00 in/hr0.0 mm/hr 0.00 in0.0 mm
03:21 PM 29.5°F-1.4°C 20.5°F-6.4°C 69% 3.9 mph SW6.3 kmh SW 6.7 mph10.8 kmh 18.72 in633.9 mb 0.00 in0.0 mm 0.00 in/hr0.0 mm/hr 0.00 in0.0 mm
03:16 PM 29.5°F-1.4°C 20.5°F-6.4°C 69% 3.9 mph SW6.3 kmh SW 5.5 mph8.9 kmh 18.72 in633.9 mb 0.00 in0.0 mm 0.00 in/hr0.0 mm/hr 0.00 in0.0 mm
03:10 PM 29.5°F-1.4°C 20.5°F-6.4°C 69% Calm Calm 5.5 mph8.9 kmh 18.72 in633.9 mb 0.00 in0.0 mm 0.00 in/hr0.0 mm/hr 0.00 in0.0 mm
03:05 PM 29.5°F-1.4°C 20.5°F-6.4°C 69% 3.1 mph W5.0 kmh W 5.5 mph8.9 kmh 18.72 in633.9 mb 0.00 in0.0 mm 0.00 in/hr0.0 mm/hr 0.00 in0.0 mm
03:00 PM 29.5°F-1.4°C 20.9°F-6.2°C 70% 3.5 mph W5.6 kmh W 5.5 mph8.9 kmh 18.72 in633.9 mb 0.00 in0.0 mm 0.00 in/hr0.0 mm/hr 0.00 in0.0 mm
02:55 PM 29.5°F-1.4°C 20.9°F-6.2°C 70% Calm Calm 4.9 mph7.9 kmh 18.72 in633.9 mb 0.00 in0.0 mm 0.00 in/hr0.0 mm/hr 0.00 in0.0 mm
02:50 PM 29.7°F-1.3°C 21.1°F-6.1°C 70% Calm Calm 6.7 mph10.8 kmh 18.72 in633.9 mb 0.00 in0.0 mm 0.00 in/hr0.0 mm/hr 0.00 in0.0 mm
02:45 PM 29.7°F-1.3°C 21.2°F-6.0°C 70% 4.3 mph WSW6.9 kmh WSW 6.7 mph10.8 kmh 18.72 in633.9 mb 0.00 in0.0 mm 0.00 in/hr0.0 mm/hr 0.00 in0.0 mm
02:40 PM 30.0°F-1.1°C 22.2°F-5.4°C 72% 2.9 mph WSW4.7 kmh WSW 5.5 mph8.9 kmh 18.72 in633.9 mb 0.00 in0.0 mm 0.00 in/hr0.0 mm/hr 0.00 in0.0 mm
02:35 PM 30.0°F-1.1°C 22.2°F-5.4°C 72% 3.8 mph WSW6.1 kmh WSW 6.7 mph10.8 kmh 18.72 in633.9 mb 0.00 in0.0 mm 0.00 in/hr0.0 mm/hr 0.00 in0.0 mm
02:30 PM 30.2°F-1.0°C 23.2°F-4.9°C 75% Calm Calm 6.7 mph10.8 kmh 18.72 in633.9 mb 0.00 in0.0 mm 0.00 in/hr0.0 mm/hr 0.00 in0.0 mm
02:25 PM 30.2°F-1.0°C 23.2°F-4.9°C 75% Calm Calm -- 18.72 in633.9 mb 0.00 in0.0 mm 0.00 in/hr0.0 mm/hr 0.00 in0.0 mm
02:20 PM 30.2°F-1.0°C 23.6°F-4.7°C 76% Calm Calm -- 18.72 in633.9 mb 0.00 in0.0 mm 0.00 in/hr0.0 mm/hr 0.00 in0.0 mm
02:15 PM 30.2°F-1.0°C 23.6°F-4.7°C 76% Calm Calm -- 18.72 in633.9 mb 0.00 in0.0 mm 0.00 in/hr0.0 mm/hr 0.00 in0.0 mm
02:10 PM 30.0°F-1.1°C 23.4°F-4.8°C 76% Calm Calm -- 18.72 in633.9 mb 0.00 in0.0 mm 0.00 in/hr0.0 mm/hr 0.00 in0.0 mm
02:05 PM 30.0°F-1.1°C 23.4°F-4.8°C 76% Calm Calm -- 18.72 in633.9 mb 0.00 in0.0 mm 0.00 in/hr0.0 mm/hr 0.00 in0.0 mm
02:00 PM 30.0°F-1.1°C 23.4°F-4.8°C 76% Calm Calm -- 18.72 in633.9 mb 0.00 in0.0 mm 0.00 in/hr0.0 mm/hr 0.00 in0.0 mm
01:55 PM 30.0°F-1.1°C 23.4°F-4.8°C 76% Calm Calm -- 18.72 in633.9 mb 0.00 in0.0 mm 0.00 in/hr0.0 mm/hr 0.00 in0.0 mm
01:50 PM 30.0°F-1.1°C 23.4°F-4.8°C 76% Calm Calm -- 18.72 in633.9 mb 0.00 in0.0 mm 0.00 in/hr0.0 mm/hr 0.00 in0.0 mm
01:45 PM 30.0°F-1.1°C 23.4°F-4.8°C 76% Calm Calm -- 18.72 in633.9 mb 0.00 in0.0 mm 0.00 in/hr0.0 mm/hr 0.00 in0.0 mm
01:40 PM 29.8°F-1.2°C 23.2°F-4.9°C 76% Calm Calm -- 18.72 in633.9 mb 0.00 in0.0 mm 0.00 in/hr0.0 mm/hr 0.00 in0.0 mm
01:35 PM 29.7°F-1.3°C 23.1°F-4.9°C 76% Calm Calm -- 18.72 in633.9 mb 0.00 in0.0 mm 0.00 in/hr0.0 mm/hr 0.00 in0.0 mm
01:30 PM 29.7°F-1.3°C 23.1°F-4.9°C 76% Calm Calm -- 18.72 in633.9 mb 0.00 in0.0 mm 0.00 in/hr0.0 mm/hr 0.00 in0.0 mm
01:25 PM 29.7°F-1.3°C 23.1°F-4.9°C 76% Calm Calm -- 18.72 in633.9 mb 0.00 in0.0 mm 0.00 in/hr0.0 mm/hr 0.00 in0.0 mm
01:20 PM 29.7°F-1.3°C 23.1°F-4.9°C 76% Calm Calm -- 18.72 in633.9 mb 0.00 in0.0 mm 0.00 in/hr0.0 mm/hr 0.00 in0.0 mm
01:14 PM 29.7°F-1.3°C 23.1°F-4.9°C 76% Calm Calm 3.7 mph6.0 kmh 18.72 in633.9 mb 0.00 in0.0 mm 0.00 in/hr0.0 mm/hr 0.00 in0.0 mm
01:09 PM 29.7°F-1.3°C 23.5°F-4.7°C 77% Calm Calm 5.5 mph8.9 kmh 18.72 in633.9 mb 0.00 in0.0 mm 0.00 in/hr0.0 mm/hr 0.00 in0.0 mm
01:04 PM 29.7°F-1.3°C 23.8°F-4.6°C 79% Calm Calm 5.5 mph8.9 kmh 18.72 in633.9 mb 0.00 in0.0 mm 0.00 in/hr0.0 mm/hr 0.00 in0.0 mm
12:59 PM 29.7°F-1.3°C 23.8°F-4.6°C 79% Calm Calm -- 18.72 in633.9 mb 0.00 in0.0 mm 0.00 in/hr0.0 mm/hr 0.00 in0.0 mm
12:54 PM 29.5°F-1.4°C 24.0°F-4.4°C 80% Calm Calm -- 18.72 in633.9 mb 0.00 in0.0 mm 0.00 in/hr0.0 mm/hr 0.00 in0.0 mm
12:49 PM 29.5°F-1.4°C 24.0°F-4.4°C 80% Calm Calm -- 18.72 in633.9 mb 0.00 in0.0 mm 0.00 in/hr0.0 mm/hr 0.00 in0.0 mm
12:43 PM 29.3°F-1.5°C 23.8°F-4.6°C 80% Calm Calm -- 18.72 in633.9 mb 0.00 in0.0 mm 0.00 in/hr0.0 mm/hr 0.00 in0.0 mm
12:39 PM 29.1°F-1.6°C 23.6°F-4.7°C 80% Calm Calm -- 18.72 in633.9 mb 0.00 in0.0 mm 0.00 in/hr0.0 mm/hr 0.00 in0.0 mm
12:33 PM 28.9°F-1.7°C 23.4°F-4.8°C 80% Calm Calm -- 18.72 in633.9 mb 0.00 in0.0 mm 0.00 in/hr0.0 mm/hr 0.00 in0.0 mm
12:29 PM 28.9°F-1.7°C 23.8°F-4.6°C 81% Calm Calm -- 18.72 in633.9 mb 0.00 in0.0 mm 0.00 in/hr0.0 mm/hr 0.00 in0.0 mm
12:23 PM 28.9°F-1.7°C 23.8°F-4.6°C 81% Calm Calm -- 18.72 in633.9 mb 0.00 in0.0 mm 0.00 in/hr0.0 mm/hr 0.00 in0.0 mm
12:18 PM 28.8°F-1.8°C 23.7°F-4.6°C 81% Calm Calm -- 18.72 in633.9 mb 0.00 in0.0 mm 0.00 in/hr0.0 mm/hr 0.00 in0.0 mm
12:12 PM 28.8°F-1.8°C 24.0°F-4.4°C 82% Calm Calm -- 18.72 in633.9 mb 0.00 in0.0 mm 0.00 in/hr0.0 mm/hr 0.00 in0.0 mm
12:08 PM 28.8°F-1.8°C 24.0°F-4.4°C 82% Calm Calm -- 18.72 in633.9 mb 0.00 in0.0 mm 0.00 in/hr0.0 mm/hr 0.00 in0.0 mm
12:02 PM 28.8°F-1.8°C 24.0°F-4.4°C 82% Calm Calm -- 18.72 in633.9 mb 0.00 in0.0 mm 0.00 in/hr0.0 mm/hr 0.00 in0.0 mm
11:58 AM 28.6°F-1.9°C 23.8°F-4.6°C 82% Calm Calm -- 18.72 in633.9 mb 0.00 in0.0 mm 0.00 in/hr0.0 mm/hr 0.00 in0.0 mm
11:53 AM 28.6°F-1.9°C 23.8°F-4.6°C 82% Calm Calm -- 18.72 in633.9 mb 0.00 in0.0 mm 0.00 in/hr0.0 mm/hr 0.00 in0.0 mm
11:47 AM 28.6°F-1.9°C 23.8°F-4.6°C 82% Calm Calm -- 18.72 in633.9 mb 0.00 in0.0 mm 0.00 in/hr0.0 mm/hr 0.00 in0.0 mm
11:42 AM 28.9°F-1.7°C 24.4°F-4.2°C 83% Calm Calm -- 18.72 in633.9 mb 0.00 in0.0 mm 0.00 in/hr0.0 mm/hr 0.00 in0.0 mm
11:37 AM 29.3°F-1.5°C 24.8°F-4.0°C 83% Calm Calm -- 18.72 in633.9 mb 0.00 in0.0 mm 0.00 in/hr0.0 mm/hr 0.00 in0.0 mm
11:31 AM 29.8°F-1.2°C 25.7°F-3.5°C 84% Calm Calm -- 18.72 in633.9 mb 0.00 in0.0 mm 0.00 in/hr0.0 mm/hr 0.00 in0.0 mm
11:26 AM 30.2°F-1.0°C 26.4°F-3.1°C 86% Calm Calm -- 18.72 in633.9 mb 0.00 in0.0 mm 0.00 in/hr0.0 mm/hr 0.00 in0.0 mm
11:21 AM 30.0°F-1.1°C 26.2°F-3.2°C 86% Calm Calm -- 18.72 in633.9 mb 0.00 in0.0 mm 0.00 in/hr0.0 mm/hr 0.00 in0.0 mm
11:16 AM 29.5°F-1.4°C 25.7°F-3.5°C 86% Calm Calm -- 18.72 in633.9 mb 0.00 in0.0 mm 0.00 in/hr0.0 mm/hr 0.00 in0.0 mm
11:10 AM 29.3°F-1.5°C 25.5°F-3.6°C 86% Calm Calm -- 18.72 in633.9 mb 0.00 in0.0 mm 0.00 in/hr0.0 mm/hr 0.00 in0.0 mm
11:05 AM 28.9°F-1.7°C 25.1°F-3.8°C 86% Calm Calm -- 18.72 in633.9 mb 0.00 in0.0 mm 0.00 in/hr0.0 mm/hr 0.00 in0.0 mm
11:00 AM 28.6°F-1.9°C 24.5°F-4.2°C 84% Calm Calm -- 18.72 in633.9 mb 0.00 in0.0 mm 0.00 in/hr0.0 mm/hr 0.00 in0.0 mm
10:55 AM 28.2°F-2.1°C 24.4°F-4.2°C 86% Calm Calm -- 18.72 in633.9 mb 0.00 in0.0 mm 0.00 in/hr0.0 mm/hr 0.00 in0.0 mm
10:50 AM 27.9°F-2.3°C 24.1°F-4.4°C 86% Calm Calm -- 18.72 in633.9 mb 0.00 in0.0 mm 0.00 in/hr0.0 mm/hr 0.00 in0.0 mm
10:45 AM 27.3°F-2.6°C 23.2°F-4.9°C 84% Calm Calm -- 18.72 in633.9 mb 0.00 in0.0 mm 0.00 in/hr0.0 mm/hr 0.00 in0.0 mm
10:40 AM 26.8°F-2.9°C 22.7°F-5.2°C 84% Calm Calm -- 18.72 in633.9 mb 0.00 in0.0 mm 0.00 in/hr0.0 mm/hr 0.00 in0.0 mm
10:35 AM 26.1°F-3.3°C 22.0°F-5.6°C 84% Calm Calm -- 18.72 in633.9 mb 0.00 in0.0 mm 0.00 in/hr0.0 mm/hr 0.00 in0.0 mm
10:30 AM 25.3°F-3.7°C 21.2°F-6.0°C 84% Calm Calm -- 18.72 in633.9 mb 0.00 in0.0 mm 0.00 in/hr0.0 mm/hr 0.00 in0.0 mm
10:25 AM 25.0°F-3.9°C 20.6°F-6.3°C 83% Calm Calm -- 18.72 in633.9 mb 0.00 in0.0 mm 0.00 in/hr0.0 mm/hr 0.00 in0.0 mm
10:19 AM 24.4°F-4.2°C 20.3°F-6.5°C 84% Calm Calm -- 18.72 in633.9 mb 0.00 in0.0 mm 0.00 in/hr0.0 mm/hr 0.00 in0.0 mm
10:14 AM 23.9°F-4.5°C 19.8°F-6.8°C 84% Calm Calm -- 18.72 in633.9 mb 0.00 in0.0 mm 0.00 in/hr0.0 mm/hr 0.00 in0.0 mm
10:07 AM 23.0°F-5.0°C 18.9°F-7.3°C 84% Calm Calm -- 18.72 in633.9 mb 0.00 in0.0 mm 0.00 in/hr0.0 mm/hr 0.00 in0.0 mm
10:02 AM 22.5°F-5.3°C 18.1°F-7.7°C 83% Calm Calm -- 18.72 in633.9 mb 0.00 in0.0 mm 0.00 in/hr0.0 mm/hr 0.00 in0.0 mm
09:56 AM 21.9°F-5.6°C 17.5°F-8.1°C 83% Calm Calm -- 18.72 in633.9 mb 0.00 in0.0 mm 0.00 in/hr0.0 mm/hr 0.00 in0.0 mm
09:52 AM 21.6°F-5.8°C 16.9°F-8.4°C 82% Calm Calm -- 18.72 in633.9 mb 0.00 in0.0 mm 0.00 in/hr0.0 mm/hr 0.00 in0.0 mm
09:46 AM 21.0°F-6.1°C 16.7°F-8.5°C 83% Calm Calm -- 18.72 in633.9 mb 0.00 in0.0 mm 0.00 in/hr0.0 mm/hr 0.00 in0.0 mm
09:41 AM 20.5°F-6.4°C 15.8°F-9.0°C 82% Calm Calm -- 18.72 in633.9 mb 0.00 in0.0 mm 0.00 in/hr0.0 mm/hr 0.00 in0.0 mm
09:36 AM 19.9°F-6.7°C 15.2°F-9.3°C 82% Calm Calm -- 18.72 in633.9 mb 0.00 in0.0 mm 0.00 in/hr0.0 mm/hr 0.00 in0.0 mm
09:31 AM 19.6°F-6.9°C 14.6°F-9.7°C 81% Calm Calm -- 18.72 in633.9 mb 0.00 in0.0 mm 0.00 in/hr0.0 mm/hr 0.00 in0.0 mm
09:26 AM 19.2°F-7.1°C 14.6°F-9.7°C 82% Calm Calm -- 18.72 in633.9 mb 0.00 in0.0 mm 0.00 in/hr0.0 mm/hr 0.00 in0.0 mm
09:21 AM 18.7°F-7.4°C 13.7°F-10.2°C 81% Calm Calm -- 18.72 in633.9 mb 0.00 in0.0 mm 0.00 in/hr0.0 mm/hr 0.00 in0.0 mm
09:16 AM 18.3°F-7.6°C 13.3°F-10.4°C 81% Calm Calm -- 18.72 in633.9 mb 0.00 in0.0 mm 0.00 in/hr0.0 mm/hr 0.00 in0.0 mm
09:11 AM 17.8°F-7.9°C 12.8°F-10.7°C 81% Calm Calm -- 18.72 in633.9 mb 0.00 in0.0 mm 0.00 in/hr0.0 mm/hr 0.00 in0.0 mm
09:06 AM 17.4°F-8.1°C 12.5°F-10.8°C 81% Calm Calm -- 18.72 in633.9 mb 0.00 in0.0 mm 0.00 in/hr0.0 mm/hr 0.00 in0.0 mm
09:00 AM 17.2°F-8.2°C 12.3°F-10.9°C 81% Calm Calm -- 18.72 in633.9 mb 0.00 in0.0 mm 0.00 in/hr0.0 mm/hr 0.00 in0.0 mm
08:55 AM 17.1°F-8.3°C 12.1°F-11.1°C 81% Calm Calm -- 18.72 in633.9 mb 0.00 in0.0 mm 0.00 in/hr0.0 mm/hr 0.00 in0.0 mm
08:51 AM 16.7°F-8.5°C 11.4°F-11.4°C 79% Calm Calm -- 18.72 in633.9 mb 0.00 in0.0 mm 0.00 in/hr0.0 mm/hr 0.00 in0.0 mm
08:45 AM 16.5°F-8.6°C 11.2°F-11.6°C 79% Calm Calm -- 18.72 in633.9 mb 0.00 in0.0 mm 0.00 in/hr0.0 mm/hr 0.00 in0.0 mm
08:40 AM 16.5°F-8.6°C 11.2°F-11.6°C 79% Calm Calm -- 18.72 in633.9 mb 0.00 in0.0 mm 0.00 in/hr0.0 mm/hr 0.00 in0.0 mm
08:35 AM 16.3°F-8.7°C 11.0°F-11.7°C 79% Calm Calm -- 18.72 in633.9 mb 0.00 in0.0 mm 0.00 in/hr0.0 mm/hr 0.00 in0.0 mm
08:30 AM 16.2°F-8.8°C 10.9°F-11.7°C 79% Calm Calm -- 18.72 in633.9 mb 0.00 in0.0 mm 0.00 in/hr0.0 mm/hr 0.00 in0.0 mm
08:25 AM 16.2°F-8.8°C 10.9°F-11.7°C 79% Calm Calm -- 18.72 in633.9 mb 0.00 in0.0 mm 0.00 in/hr0.0 mm/hr 0.00 in0.0 mm
08:20 AM 16.3°F-8.7°C 11.0°F-11.7°C 79% Calm Calm -- 18.72 in633.9 mb 0.00 in0.0 mm 0.00 in/hr0.0 mm/hr 0.00 in0.0 mm
08:15 AM 16.3°F-8.7°C 11.0°F-11.7°C 79% Calm Calm -- 18.72 in633.9 mb 0.00 in0.0 mm 0.00 in/hr0.0 mm/hr 0.00 in0.0 mm
08:10 AM 16.5°F-8.6°C 11.2°F-11.6°C 79% Calm Calm -- 18.72 in633.9 mb 0.00 in0.0 mm 0.00 in/hr0.0 mm/hr 0.00 in0.0 mm
08:05 AM 16.5°F-8.6°C 11.2°F-11.6°C 79% Calm Calm -- 18.72 in633.9 mb 0.00 in0.0 mm 0.00 in/hr0.0 mm/hr 0.00 in0.0 mm
08:00 AM 16.5°F-8.6°C 11.2°F-11.6°C 79% Calm Calm -- 18.72 in633.9 mb 0.00 in0.0 mm 0.00 in/hr0.0 mm/hr 0.00 in0.0 mm
07:55 AM 16.3°F-8.7°C 11.0°F-11.7°C 79% Calm Calm -- 18.72 in633.9 mb 0.00 in0.0 mm 0.00 in/hr0.0 mm/hr 0.00 in0.0 mm
07:50 AM 16.2°F-8.8°C 10.9°F-11.7°C 79% Calm Calm -- 18.72 in633.9 mb 0.00 in0.0 mm 0.00 in/hr0.0 mm/hr 0.00 in0.0 mm
07:45 AM 16.0°F-8.9°C 10.7°F-11.8°C 79% Calm Calm -- 18.72 in633.9 mb 0.00 in0.0 mm 0.00 in/hr0.0 mm/hr 0.00 in0.0 mm
07:40 AM 15.8°F-9.0°C 10.5°F-11.9°C 79% Calm Calm -- 18.72 in633.9 mb 0.00 in0.0 mm 0.00 in/hr0.0 mm/hr 0.00 in0.0 mm
07:35 AM 15.4°F-9.2°C 10.1°F-12.2°C 79% Calm Calm -- 18.72 in633.9 mb 0.00 in0.0 mm 0.00 in/hr0.0 mm/hr 0.00 in0.0 mm
07:30 AM 15.3°F-9.3°C 10.0°F-12.2°C 79% Calm Calm -- 18.72 in633.9 mb 0.00 in0.0 mm 0.00 in/hr0.0 mm/hr 0.00 in0.0 mm
07:24 AM 15.1°F-9.4°C 9.8°F-12.3°C 79% Calm Calm -- 18.72 in633.9 mb 0.00 in0.0 mm 0.00 in/hr0.0 mm/hr 0.00 in0.0 mm
07:20 AM 14.7°F-9.6°C 9.4°F-12.6°C 79% Calm Calm -- 18.72 in633.9 mb 0.00 in0.0 mm 0.00 in/hr0.0 mm/hr 0.00 in0.0 mm
07:14 AM 14.5°F-9.7°C 8.8°F-12.9°C 78% Calm Calm -- 18.72 in633.9 mb 0.00 in0.0 mm 0.00 in/hr0.0 mm/hr 0.00 in0.0 mm
07:09 AM 14.2°F-9.9°C 8.5°F-13.1°C 78% Calm Calm -- 18.72 in633.9 mb 0.00 in0.0 mm 0.00 in/hr0.0 mm/hr 0.00 in0.0 mm
07:04 AM 13.8°F-10.1°C 8.1°F-13.3°C 78% Calm Calm -- 18.72 in633.9 mb 0.00 in0.0 mm 0.00 in/hr0.0 mm/hr 0.00 in0.0 mm
06:59 AM 13.6°F-10.2°C 7.9°F-13.4°C 78% Calm Calm -- 18.72 in633.9 mb 0.00 in0.0 mm 0.00 in/hr0.0 mm/hr 0.00 in0.0 mm
06:54 AM 13.5°F-10.3°C 7.8°F-13.4°C 78% Calm Calm -- 18.72 in633.9 mb 0.00 in0.0 mm 0.00 in/hr0.0 mm/hr 0.00 in0.0 mm
06:49 AM 13.5°F-10.3°C 7.8°F-13.4°C 78% Calm Calm -- 18.72 in633.9 mb 0.00 in0.0 mm 0.00 in/hr0.0 mm/hr 0.00 in0.0 mm
06:44 AM 13.5°F-10.3°C 7.8°F-13.4°C 78% Calm Calm -- 18.72 in633.9 mb 0.00 in0.0 mm 0.00 in/hr0.0 mm/hr 0.00 in0.0 mm
06:39 AM 13.5°F-10.3°C 7.8°F-13.4°C 78% Calm Calm -- 18.72 in633.9 mb 0.00 in0.0 mm 0.00 in/hr0.0 mm/hr 0.00 in0.0 mm
06:34 AM 13.5°F-10.3°C 7.8°F-13.4°C 78% Calm Calm -- 18.72 in633.9 mb 0.00 in0.0 mm 0.00 in/hr0.0 mm/hr 0.00 in0.0 mm
06:29 AM 13.5°F-10.3°C 7.8°F-13.4°C 78% Calm Calm -- 18.72 in633.9 mb 0.00 in0.0 mm 0.00 in/hr0.0 mm/hr 0.00 in0.0 mm
06:24 AM 13.5°F-10.3°C 7.8°F-13.4°C 78% Calm Calm -- 18.72 in633.9 mb 0.00 in0.0 mm 0.00 in/hr0.0 mm/hr 0.00 in0.0 mm
06:19 AM 13.5°F-10.3°C 7.8°F-13.4°C 78% Calm Calm -- 18.72 in633.9 mb 0.00 in0.0 mm 0.00 in/hr0.0 mm/hr 0.00 in0.0 mm
06:14 AM 13.5°F-10.3°C 7.8°F-13.4°C 78% Calm Calm -- 18.72 in633.9 mb 0.00 in0.0 mm 0.00 in/hr0.0 mm/hr 0.00 in0.0 mm
06:09 AM 13.6°F-10.2°C 7.9°F-13.4°C 78% Calm Calm -- 18.72 in633.9 mb 0.00 in0.0 mm 0.00 in/hr0.0 mm/hr 0.00 in0.0 mm
06:04 AM 13.6°F-10.2°C 7.9°F-13.4°C 78% Calm Calm -- 18.72 in633.9 mb 0.00 in0.0 mm 0.00 in/hr0.0 mm/hr 0.00 in0.0 mm
05:58 AM 13.6°F-10.2°C 7.9°F-13.4°C 78% Calm Calm -- 18.72 in633.9 mb 0.00 in0.0 mm 0.00 in/hr0.0 mm/hr 0.00 in0.0 mm
05:53 AM 13.6°F-10.2°C 8.0°F-13.3°C 78% Calm Calm -- 18.72 in633.9 mb 0.00 in0.0 mm 0.00 in/hr0.0 mm/hr 0.00 in0.0 mm
05:48 AM 13.8°F-10.1°C 8.2°F-13.2°C 78% Calm Calm -- 18.72 in633.9 mb 0.00 in0.0 mm 0.00 in/hr0.0 mm/hr 0.00 in0.0 mm
05:43 AM 13.8°F-10.1°C 8.2°F-13.2°C 78% Calm Calm -- 18.72 in633.9 mb 0.00 in0.0 mm 0.00 in/hr0.0 mm/hr 0.00 in0.0 mm
05:38 AM 14.0°F-10.0°C 8.4°F-13.1°C 78% Calm Calm -- 18.72 in633.9 mb 0.00 in0.0 mm 0.00 in/hr0.0 mm/hr 0.00 in0.0 mm
05:32 AM 13.8°F-10.1°C 7.8°F-13.4°C 77% Calm Calm -- 18.72 in633.9 mb 0.00 in0.0 mm 0.00 in/hr0.0 mm/hr 0.00 in0.0 mm
05:27 AM 13.8°F-10.1°C 7.9°F-13.4°C 77% Calm Calm -- 18.72 in633.9 mb 0.00 in0.0 mm 0.00 in/hr0.0 mm/hr 0.00 in0.0 mm
05:22 AM 13.8°F-10.1°C 7.9°F-13.4°C 77% Calm Calm -- 18.72 in633.9 mb 0.00 in0.0 mm 0.00 in/hr0.0 mm/hr 0.00 in0.0 mm
05:17 AM 13.8°F-10.1°C 7.9°F-13.4°C 77% Calm Calm -- 18.72 in633.9 mb 0.00 in0.0 mm 0.00 in/hr0.0 mm/hr 0.00 in0.0 mm
05:12 AM 14.0°F-10.0°C 8.1°F-13.3°C 77% Calm Calm -- 18.72 in633.9 mb 0.00 in0.0 mm 0.00 in/hr0.0 mm/hr 0.00 in0.0 mm
05:07 AM 14.2°F-9.9°C 8.3°F-13.2°C 77% Calm Calm -- 18.72 in633.9 mb 0.00 in0.0 mm 0.00 in/hr0.0 mm/hr 0.00 in0.0 mm
05:02 AM 14.4°F-9.8°C 8.5°F-13.1°C 77% Calm Calm -- 18.72 in633.9 mb 0.00 in0.0 mm 0.00 in/hr0.0 mm/hr 0.00 in0.0 mm
04:57 AM 14.4°F-9.8°C 8.5°F-13.1°C 77% Calm Calm -- 18.72 in633.9 mb 0.00 in0.0 mm 0.00 in/hr0.0 mm/hr 0.00 in0.0 mm
04:52 AM 14.5°F-9.7°C 8.6°F-13.0°C 77% Calm Calm -- 18.72 in633.9 mb 0.00 in0.0 mm 0.00 in/hr0.0 mm/hr 0.00 in0.0 mm
04:47 AM 14.7°F-9.6°C 8.8°F-12.9°C 77% Calm Calm -- 18.72 in633.9 mb 0.00 in0.0 mm 0.00 in/hr0.0 mm/hr 0.00 in0.0 mm
04:42 AM 14.9°F-9.5°C 9.0°F-12.8°C 77% Calm Calm -- 18.72 in633.9 mb 0.00 in0.0 mm 0.00 in/hr0.0 mm/hr 0.00 in0.0 mm
04:37 AM 14.9°F-9.5°C 9.0°F-12.8°C 77% Calm Calm -- 18.72 in633.9 mb 0.00 in0.0 mm 0.00 in/hr0.0 mm/hr 0.00 in0.0 mm
04:32 AM 14.9°F-9.5°C 9.0°F-12.8°C 77% Calm Calm -- 18.72 in633.9 mb 0.00 in0.0 mm 0.00 in/hr0.0 mm/hr 0.00 in0.0 mm
04:27 AM 15.1°F-9.4°C 9.2°F-12.7°C 77% Calm Calm -- 18.72 in633.9 mb 0.00 in0.0 mm 0.00 in/hr0.0 mm/hr 0.00 in0.0 mm
04:22 AM 15.3°F-9.3°C 9.4°F-12.6°C 77% Calm Calm -- 18.72 in633.9 mb 0.00 in0.0 mm 0.00 in/hr0.0 mm/hr 0.00 in0.0 mm
04:17 AM 15.4°F-9.2°C 9.5°F-12.5°C 77% Calm Calm -- 18.72 in633.9 mb 0.00 in0.0 mm 0.00 in/hr0.0 mm/hr 0.00 in0.0 mm
04:12 AM 15.4°F-9.2°C 9.8°F-12.3°C 78% Calm Calm -- 18.72 in633.9 mb 0.00 in0.0 mm 0.00 in/hr0.0 mm/hr 0.00 in0.0 mm
04:07 AM 15.4°F-9.2°C 9.5°F-12.5°C 77% Calm Calm -- 18.72 in633.9 mb 0.00 in0.0 mm 0.00 in/hr0.0 mm/hr 0.00 in0.0 mm
04:01 AM 15.3°F-9.3°C 9.4°F-12.6°C 77% Calm Calm -- 18.72 in633.9 mb 0.00 in0.0 mm 0.00 in/hr0.0 mm/hr 0.00 in0.0 mm
03:56 AM 15.1°F-9.4°C 9.2°F-12.7°C 77% Calm Calm -- 18.72 in633.9 mb 0.00 in0.0 mm 0.00 in/hr0.0 mm/hr 0.00 in0.0 mm
03:51 AM 14.9°F-9.5°C 9.1°F-12.7°C 77% Calm Calm -- 18.72 in633.9 mb 0.00 in0.0 mm 0.00 in/hr0.0 mm/hr 0.00 in0.0 mm
03:46 AM 14.7°F-9.6°C 8.9°F-12.8°C 77% Calm Calm -- 18.72 in633.9 mb 0.00 in0.0 mm 0.00 in/hr0.0 mm/hr 0.00 in0.0 mm
03:41 AM 14.5°F-9.7°C 8.7°F-12.9°C 77% Calm Calm -- 18.72 in633.9 mb 0.00 in0.0 mm 0.00 in/hr0.0 mm/hr 0.00 in0.0 mm
03:36 AM 14.5°F-9.7°C 8.4°F-13.1°C 76% Calm Calm -- 18.72 in633.9 mb 0.00 in0.0 mm 0.00 in/hr0.0 mm/hr 0.00 in0.0 mm
03:31 AM 14.5°F-9.7°C 8.7°F-12.9°C 77% Calm Calm -- 18.72 in633.9 mb 0.00 in0.0 mm 0.00 in/hr0.0 mm/hr 0.00 in0.0 mm
03:26 AM 14.5°F-9.7°C 8.7°F-12.9°C 77% Calm Calm -- 18.72 in633.9 mb 0.00 in0.0 mm 0.00 in/hr0.0 mm/hr 0.00 in0.0 mm
03:21 AM 14.5°F-9.7°C 8.4°F-13.1°C 76% Calm Calm -- 18.72 in633.9 mb 0.00 in0.0 mm 0.00 in/hr0.0 mm/hr 0.00 in0.0 mm
03:16 AM 14.5°F-9.7°C 8.4°F-13.1°C 76% Calm Calm -- 18.72 in633.9 mb 0.00 in0.0 mm 0.00 in/hr0.0 mm/hr 0.00 in0.0 mm
03:11 AM 14.5°F-9.7°C 8.4°F-13.1°C 76% Calm Calm -- 18.72 in633.9 mb 0.00 in0.0 mm 0.00 in/hr0.0 mm/hr 0.00 in0.0 mm
03:06 AM 14.7°F-9.6°C 8.6°F-13.0°C 76% Calm Calm -- 18.72 in633.9 mb 0.00 in0.0 mm 0.00 in/hr0.0 mm/hr 0.00 in0.0 mm
03:00 AM 14.5°F-9.7°C 8.4°F-13.1°C 76% Calm Calm -- 18.72 in633.9 mb 0.00 in0.0 mm 0.00 in/hr0.0 mm/hr 0.00 in0.0 mm
02:55 AM 14.5°F-9.7°C 8.4°F-13.1°C 76% Calm Calm -- 18.72 in633.9 mb 0.00 in0.0 mm 0.00 in/hr0.0 mm/hr 0.00 in0.0 mm
02:50 AM 14.7°F-9.6°C 8.6°F-13.0°C 76% Calm Calm -- 18.72 in633.9 mb 0.00 in0.0 mm 0.00 in/hr0.0 mm/hr 0.00 in0.0 mm
02:44 AM 14.9°F-9.5°C 8.8°F-12.9°C 76% Calm Calm -- 18.72 in633.9 mb 0.00 in0.0 mm 0.00 in/hr0.0 mm/hr 0.00 in0.0 mm
02:39 AM 15.1°F-9.4°C 9.0°F-12.8°C 76% Calm Calm -- 18.72 in633.9 mb 0.00 in0.0 mm 0.00 in/hr0.0 mm/hr 0.00 in0.0 mm
02:34 AM 15.1°F-9.4°C 9.0°F-12.8°C 76% Calm Calm -- 18.72 in633.9 mb 0.00 in0.0 mm 0.00 in/hr0.0 mm/hr 0.00 in0.0 mm
02:29 AM 15.1°F-9.4°C 9.0°F-12.8°C 76% Calm Calm -- 18.72 in633.9 mb 0.00 in0.0 mm 0.00 in/hr0.0 mm/hr 0.00 in0.0 mm
02:24 AM 15.1°F-9.4°C 9.0°F-12.8°C 76% Calm Calm -- 18.72 in633.9 mb 0.00 in0.0 mm 0.00 in/hr0.0 mm/hr 0.00 in0.0 mm
02:19 AM 15.1°F-9.4°C 9.0°F-12.8°C 76% Calm Calm -- 18.72 in633.9 mb 0.00 in0.0 mm 0.00 in/hr0.0 mm/hr 0.00 in0.0 mm
02:14 AM 15.1°F-9.4°C 9.0°F-12.8°C 76% Calm Calm -- 18.72 in633.9 mb 0.00 in0.0 mm 0.00 in/hr0.0 mm/hr 0.00 in0.0 mm
02:09 AM 15.3°F-9.3°C 9.2°F-12.7°C 76% Calm Calm -- 18.72 in633.9 mb 0.00 in0.0 mm 0.00 in/hr0.0 mm/hr 0.00 in0.0 mm
02:04 AM 15.4°F-9.2°C 9.3°F-12.6°C 76% Calm Calm -- 18.72 in633.9 mb 0.00 in0.0 mm 0.00 in/hr0.0 mm/hr 0.00 in0.0 mm
01:59 AM 15.4°F-9.2°C 9.3°F-12.6°C 76% Calm Calm -- 18.72 in633.9 mb 0.00 in0.0 mm 0.00 in/hr0.0 mm/hr 0.00 in0.0 mm
01:54 AM 15.3°F-9.3°C 9.2°F-12.7°C 76% Calm Calm -- 18.72 in633.9 mb 0.00 in0.0 mm 0.00 in/hr0.0 mm/hr 0.00 in0.0 mm
01:49 AM 15.3°F-9.3°C 9.2°F-12.7°C 76% Calm Calm -- 18.72 in633.9 mb 0.00 in0.0 mm 0.00 in/hr0.0 mm/hr 0.00 in0.0 mm
01:44 AM 15.3°F-9.3°C 9.2°F-12.7°C 76% Calm Calm -- 18.72 in633.9 mb 0.00 in0.0 mm 0.00 in/hr0.0 mm/hr 0.00 in0.0 mm
01:39 AM 15.4°F-9.2°C 9.3°F-12.6°C 76% Calm Calm -- 18.72 in633.9 mb 0.00 in0.0 mm 0.00 in/hr0.0 mm/hr 0.00 in0.0 mm
01:34 AM 15.4°F-9.2°C 9.3°F-12.6°C 77% Calm Calm -- 18.72 in633.9 mb 0.00 in0.0 mm 0.00 in/hr0.0 mm/hr 0.00 in0.0 mm
01:29 AM 15.4°F-9.2°C 9.3°F-12.6°C 77% Calm Calm -- 18.72 in633.9 mb 0.00 in0.0 mm 0.00 in/hr0.0 mm/hr 0.00 in0.0 mm
01:24 AM 15.4°F-9.2°C 9.3°F-12.6°C 77% Calm Calm -- 18.72 in633.9 mb 0.00 in0.0 mm 0.00 in/hr0.0 mm/hr 0.00 in0.0 mm
01:18 AM 15.6°F-9.1°C 9.5°F-12.5°C 77% Calm Calm -- 18.72 in633.9 mb 0.00 in0.0 mm 0.00 in/hr0.0 mm/hr 0.00 in0.0 mm
01:13 AM 15.8°F-9.0°C 9.7°F-12.4°C 77% Calm Calm -- 18.72 in633.9 mb 0.00 in0.0 mm 0.00 in/hr0.0 mm/hr 0.00 in0.0 mm
01:08 AM 16.0°F-8.9°C 9.6°F-12.4°C 75% Calm Calm -- 18.72 in633.9 mb 0.00 in0.0 mm 0.00 in/hr0.0 mm/hr 0.00 in0.0 mm
01:03 AM 16.3°F-8.7°C 9.9°F-12.3°C 75% Calm Calm -- 18.72 in633.9 mb 0.00 in0.0 mm 0.00 in/hr0.0 mm/hr 0.00 in0.0 mm
12:57 AM 16.5°F-8.6°C 10.4°F-12.0°C 77% Calm Calm -- 18.72 in633.9 mb 0.00 in0.0 mm 0.00 in/hr0.0 mm/hr 0.00 in0.0 mm
12:52 AM 16.7°F-8.5°C 10.6°F-11.9°C 77% Calm Calm -- 18.72 in633.9 mb 0.00 in0.0 mm 0.00 in/hr0.0 mm/hr 0.00 in0.0 mm
12:47 AM 16.7°F-8.5°C 10.3°F-12.1°C 75% Calm Calm -- 18.72 in633.9 mb 0.00 in0.0 mm 0.00 in/hr0.0 mm/hr 0.00 in0.0 mm
12:42 AM 16.9°F-8.4°C 10.5°F-11.9°C 75% Calm Calm -- 18.72 in633.9 mb 0.00 in0.0 mm 0.00 in/hr0.0 mm/hr 0.00 in0.0 mm
12:37 AM 17.1°F-8.3°C 11.0°F-11.7°C 77% Calm Calm -- 18.72 in633.9 mb 0.00 in0.0 mm 0.00 in/hr0.0 mm/hr 0.00 in0.0 mm
12:32 AM 17.1°F-8.3°C 11.0°F-11.7°C 77% Calm Calm -- 18.72 in633.9 mb 0.00 in0.0 mm 0.00 in/hr0.0 mm/hr 0.00 in0.0 mm
12:27 AM 17.1°F-8.3°C 11.0°F-11.7°C 77% Calm Calm -- 18.72 in633.9 mb 0.00 in0.0 mm 0.00 in/hr0.0 mm/hr 0.00 in0.0 mm
12:22 AM 17.1°F-8.3°C 11.0°F-11.7°C 77% Calm Calm -- 18.72 in633.9 mb 0.00 in0.0 mm 0.00 in/hr0.0 mm/hr 0.00 in0.0 mm
12:17 AM 17.1°F-8.3°C 11.0°F-11.7°C 77% Calm Calm -- 18.72 in633.9 mb 0.00 in0.0 mm 0.00 in/hr0.0 mm/hr 0.00 in0.0 mm
12:12 AM 16.9°F-8.4°C 10.5°F-11.9°C 75% Calm Calm -- 18.72 in633.9 mb 0.00 in0.0 mm 0.00 in/hr0.0 mm/hr 0.00 in0.0 mm
12:06 AM 16.9°F-8.4°C 10.5°F-11.9°C 75% Calm Calm -- 18.72 in633.9 mb 0.00 in0.0 mm 0.00 in/hr0.0 mm/hr 0.00 in0.0 mm
12:01 AM 16.9°F-8.4°C 10.5°F-11.9°C 75% Calm Calm -- 18.72 in633.9 mb 0.00 in0.0 mm 0.00 in/hr0.0 mm/hr 0.00 in0.0 mm